sensor_id;sensor_type;location;lat;lon;timestamp;pressure;altitude;pressure_sealevel;temperature;humidity
19576;BME280;41589;51.196;7.074;2023-03-04T00:00:22;99787.47;;;5.70;59.63
19576;BME280;41589;51.196;7.074;2023-03-04T00:05:22;99786.34;;;5.64;59.41
19576;BME280;41589;51.196;7.074;2023-03-04T00:10:23;99798.38;;;5.57;59.66
19576;BME280;41589;51.196;7.074;2023-03-04T00:15:23;99787.25;;;5.53;59.90
19576;BME280;41589;51.196;7.074;2023-03-04T00:20:23;99786.47;;;5.49;59.94
19576;BME280;41589;51.196;7.074;2023-03-04T00:25:24;99787.66;;;5.48;60.25
19576;BME280;41589;51.196;7.074;2023-03-04T00:30:24;99781.66;;;5.50;60.49
19576;BME280;41589;51.196;7.074;2023-03-04T00:35:25;99780.34;;;5.65;60.66
19576;BME280;41589;51.196;7.074;2023-03-04T00:40:27;99777.03;;;5.77;60.32
19576;BME280;41589;51.196;7.074;2023-03-04T00:45:27;99765.91;;;5.70;59.90
19576;BME280;41589;51.196;7.074;2023-03-04T00:50:28;99773.13;;;5.68;60.10
19576;BME280;41589;51.196;7.074;2023-03-04T00:55:28;99767.22;;;5.62;59.96
19576;BME280;41589;51.196;7.074;2023-03-04T01:00:28;99770.34;;;5.68;60.17
19576;BME280;41589;51.196;7.074;2023-03-04T01:05:30;99758.44;;;5.60;59.86
19576;BME280;41589;51.196;7.074;2023-03-04T01:10:33;99768.38;;;5.65;60.11
19576;BME280;41589;51.196;7.074;2023-03-04T01:15:34;99757.53;;;5.74;59.92
19576;BME280;41589;51.196;7.074;2023-03-04T01:20:34;99754.38;;;5.68;59.36
19576;BME280;41589;51.196;7.074;2023-03-04T01:25:36;99751.56;;;5.68;60.00
19576;BME280;41589;51.196;7.074;2023-03-04T01:30:36;99746.16;;;5.54;59.96
19576;BME280;41589;51.196;7.074;2023-03-04T01:35:37;99744.97;;;5.51;60.47
19576;BME280;41589;51.196;7.074;2023-03-04T01:40:38;99743.25;;;5.65;59.95
19576;BME280;41589;51.196;7.074;2023-03-04T01:45:38;99732.56;;;5.56;60.54
19576;BME280;41589;51.196;7.074;2023-03-04T01:50:39;99726.97;;;5.56;60.05
19576;BME280;41589;51.196;7.074;2023-03-04T01:55:39;99733.72;;;5.59;60.21
19576;BME280;41589;51.196;7.074;2023-03-04T02:00:40;99731.03;;;5.48;60.12
19576;BME280;41589;51.196;7.074;2023-03-04T02:05:44;99710.69;;;5.47;60.39
19576;BME280;41589;51.196;7.074;2023-03-04T02:10:46;99718.28;;;5.47;60.38
19576;BME280;41589;51.196;7.074;2023-03-04T02:15:47;99719.84;;;5.48;60.27
19576;BME280;41589;51.196;7.074;2023-03-04T02:31:35;99714.16;;;5.59;60.35
19576;BME280;41589;51.196;7.074;2023-03-04T02:36:36;99703.38;;;5.61;60.31
19576;BME280;41589;51.196;7.074;2023-03-04T02:41:38;99706.88;;;5.72;60.24
19576;BME280;41589;51.196;7.074;2023-03-04T02:46:38;99697.72;;;5.68;60.04
19576;BME280;41589;51.196;7.074;2023-03-04T02:51:39;99700.97;;;5.63;60.26
19576;BME280;41589;51.196;7.074;2023-03-04T02:56:46;99694.28;;;5.53;60.54
19576;BME280;41589;51.196;7.074;2023-03-04T03:01:49;99691.81;;;5.62;60.53
19576;BME280;41589;51.196;7.074;2023-03-04T03:06:49;99681.75;;;5.68;60.36
19576;BME280;41589;51.196;7.074;2023-03-04T03:11:50;99690.22;;;5.61;60.39
19576;BME280;41589;51.196;7.074;2023-03-04T03:16:51;99679.13;;;5.54;60.56
19576;BME280;41589;51.196;7.074;2023-03-04T03:21:51;99680.22;;;5.64;60.86
19576;BME280;41589;51.196;7.074;2023-03-04T03:26:52;99676.22;;;5.65;60.51
19576;BME280;41589;51.196;7.074;2023-03-04T03:31:53;99667.94;;;5.88;60.60
19576;BME280;41589;51.196;7.074;2023-03-04T03:36:54;99667.56;;;5.86;60.05
19576;BME280;41589;51.196;7.074;2023-03-04T03:41:55;99669.78;;;5.68;59.87
19576;BME280;41589;51.196;7.074;2023-03-04T03:46:56;99664.31;;;5.57;60.33
19576;BME280;41589;51.196;7.074;2023-03-04T03:51:56;99663.34;;;5.74;59.93
19576;BME280;41589;51.196;7.074;2023-03-04T03:56:56;99663.03;;;5.65;59.88
19576;BME280;41589;51.196;7.074;2023-03-04T04:01:57;99665.88;;;5.62;59.76
19576;BME280;41589;51.196;7.074;2023-03-04T04:06:57;99668.94;;;5.71;59.46
19576;BME280;41589;51.196;7.074;2023-03-04T04:11:58;99663.41;;;5.67;59.47
19576;BME280;41589;51.196;7.074;2023-03-04T04:16:58;99661.25;;;5.82;59.36
19576;BME280;41589;51.196;7.074;2023-03-04T04:21:58;99661.16;;;5.89;59.09
19576;BME280;41589;51.196;7.074;2023-03-04T04:26:59;99659.94;;;5.90;58.39
19576;BME280;41589;51.196;7.074;2023-03-04T04:32:00;99667.09;;;5.91;58.96
19576;BME280;41589;51.196;7.074;2023-03-04T04:37:00;99650.69;;;5.97;58.61
19576;BME280;41589;51.196;7.074;2023-03-04T04:42:01;99658.81;;;5.84;58.65
19576;BME280;41589;51.196;7.074;2023-03-04T04:47:01;99651.13;;;5.92;59.40
19576;BME280;41589;51.196;7.074;2023-03-04T04:52:02;99656.97;;;6.04;58.70
19576;BME280;41589;51.196;7.074;2023-03-04T04:57:02;99659.63;;;5.85;58.47
19576;BME280;41589;51.196;7.074;2023-03-04T05:02:02;99662.00;;;5.86;58.86
19576;BME280;41589;51.196;7.074;2023-03-04T05:07:03;99662.78;;;5.87;58.73
19576;BME280;41589;51.196;7.074;2023-03-04T05:12:03;99666.22;;;5.98;58.55
19576;BME280;41589;51.196;7.074;2023-03-04T05:17:03;99662.28;;;5.95;58.43
19576;BME280;41589;51.196;7.074;2023-03-04T05:22:04;99661.44;;;5.98;58.46
19576;BME280;41589;51.196;7.074;2023-03-04T05:27:04;99665.06;;;5.95;58.39
19576;BME280;41589;51.196;7.074;2023-03-04T05:32:05;99664.66;;;5.97;58.77
19576;BME280;41589;51.196;7.074;2023-03-04T05:37:05;99662.34;;;5.88;58.79
19576;BME280;41589;51.196;7.074;2023-03-04T05:42:05;99665.16;;;5.88;58.98
19576;BME280;41589;51.196;7.074;2023-03-04T05:47:06;99668.84;;;5.81;59.15
19576;BME280;41589;51.196;7.074;2023-03-04T05:52:06;99667.34;;;5.70;59.33
19576;BME280;41589;51.196;7.074;2023-03-04T05:57:06;99670.25;;;5.63;59.63
19576;BME280;41589;51.196;7.074;2023-03-04T06:02:07;99668.44;;;5.79;58.86
19576;BME280;41589;51.196;7.074;2023-03-04T06:07:07;99671.34;;;5.72;59.42
19576;BME280;41589;51.196;7.074;2023-03-04T06:12:07;99675.78;;;5.66;59.25
19576;BME280;41589;51.196;7.074;2023-03-04T06:17:08;99682.13;;;5.70;59.80
19576;BME280;41589;51.196;7.074;2023-03-04T06:22:09;99683.41;;;5.96;59.06
19576;BME280;41589;51.196;7.074;2023-03-04T06:27:09;99678.69;;;5.90;59.16
19576;BME280;41589;51.196;7.074;2023-03-04T06:32:10;99689.56;;;5.84;59.06
19576;BME280;41589;51.196;7.074;2023-03-04T06:37:10;99701.53;;;5.81;59.70
19576;BME280;41589;51.196;7.074;2023-03-04T06:42:11;99697.28;;;5.69;59.22
19576;BME280;41589;51.196;7.074;2023-03-04T06:47:11;99702.03;;;5.76;59.71
19576;BME280;41589;51.196;7.074;2023-03-04T06:52:12;99710.78;;;5.78;59.25
19576;BME280;41589;51.196;7.074;2023-03-04T06:57:12;99708.66;;;5.89;59.21
19576;BME280;41589;51.196;7.074;2023-03-04T07:02:13;99712.50;;;6.02;59.32
19576;BME280;41589;51.196;7.074;2023-03-04T07:07:13;99711.03;;;6.25;59.08
19576;BME280;41589;51.196;7.074;2023-03-04T07:12:13;99711.84;;;6.22;59.08
19576;BME280;41589;51.196;7.074;2023-03-04T07:17:14;99709.53;;;6.17;59.09
19576;BME280;41589;51.196;7.074;2023-03-04T07:22:14;99719.75;;;5.96;59.42
19576;BME280;41589;51.196;7.074;2023-03-04T07:27:14;99732.72;;;6.14;59.00
19576;BME280;41589;51.196;7.074;2023-03-04T07:32:15;99714.75;;;6.15;59.34
19576;BME280;41589;51.196;7.074;2023-03-04T07:37:15;99721.56;;;6.10;59.50
19576;BME280;41589;51.196;7.074;2023-03-04T07:42:16;99723.06;;;6.18;59.46
19576;BME280;41589;51.196;7.074;2023-03-04T07:47:24;99729.59;;;6.08;60.20
19576;BME280;41589;51.196;7.074;2023-03-04T07:52:25;99727.00;;;6.24;60.75
19576;BME280;41589;51.196;7.074;2023-03-04T07:57:25;99734.06;;;6.32;60.40
19576;BME280;41589;51.196;7.074;2023-03-04T08:02:26;99732.84;;;6.33;60.40
19576;BME280;41589;51.196;7.074;2023-03-04T08:07:26;99747.25;;;6.32;60.08
19576;BME280;41589;51.196;7.074;2023-03-04T08:12:26;99735.22;;;6.38;60.38
19576;BME280;41589;51.196;7.074;2023-03-04T08:17:27;99733.00;;;6.57;60.58
19576;BME280;41589;51.196;7.074;2023-03-04T08:22:28;99728.06;;;6.37;60.91
19576;BME280;41589;51.196;7.074;2023-03-04T08:27:29;99741.09;;;6.48;60.96
19576;BME280;41589;51.196;7.074;2023-03-04T08:32:29;99733.59;;;6.41;61.35
19576;BME280;41589;51.196;7.074;2023-03-04T08:37:30;99732.44;;;6.38;61.59
19576;BME280;41589;51.196;7.074;2023-03-04T08:42:30;99747.44;;;6.52;62.47
19576;BME280;41589;51.196;7.074;2023-03-04T08:47:30;99738.28;;;6.78;61.68
19576;BME280;41589;51.196;7.074;2023-03-04T08:52:31;99744.41;;;6.96;61.61
19576;BME280;41589;51.196;7.074;2023-03-04T08:57:31;99745.31;;;7.13;61.28
19576;BME280;41589;51.196;7.074;2023-03-04T09:02:32;99738.03;;;7.43;60.80
19576;BME280;41589;51.196;7.074;2023-03-04T09:07:32;99738.56;;;7.34;60.15
19576;BME280;41589;51.196;7.074;2023-03-04T09:12:32;99739.50;;;7.28;60.25
19576;BME280;41589;51.196;7.074;2023-03-04T09:17:33;99733.53;;;7.49;60.97
19576;BME280;41589;51.196;7.074;2023-03-04T09:22:33;99738.13;;;7.82;60.77
19576;BME280;41589;51.196;7.074;2023-03-04T09:27:33;99737.47;;;7.95;59.64
19576;BME280;41589;51.196;7.074;2023-03-04T09:32:34;99738.56;;;7.81;59.92
19576;BME280;41589;51.196;7.074;2023-03-04T09:37:35;99734.09;;;7.83;60.11
19576;BME280;41589;51.196;7.074;2023-03-04T09:42:37;99734.56;;;7.78;60.38
19576;BME280;41589;51.196;7.074;2023-03-04T09:47:41;99744.00;;;7.45;60.62
19576;BME280;41589;51.196;7.074;2023-03-04T10:03:16;99741.34;;;6.87;64.56
19576;BME280;41589;51.196;7.074;2023-03-04T10:08:30;99730.34;;;7.00;65.65
19576;BME280;41589;51.196;7.074;2023-03-04T10:13:42;99732.34;;;7.00;65.72
19576;BME280;41589;51.196;7.074;2023-03-04T10:18:51;99739.53;;;7.01;65.81
19576;BME280;41589;51.196;7.074;2023-03-04T10:23:53;99728.34;;;7.01;66.97
19576;BME280;41589;51.196;7.074;2023-03-04T10:28:54;99726.69;;;7.26;68.51
19576;BME280;41589;51.196;7.074;2023-03-04T10:33:54;99721.22;;;7.43;67.91
19576;BME280;41589;51.196;7.074;2023-03-04T10:39:02;99724.94;;;7.79;68.21
19576;BME280;41589;51.196;7.074;2023-03-04T10:44:04;99707.22;;;8.06;67.96
19576;BME280;41589;51.196;7.074;2023-03-04T10:49:15;99708.34;;;8.08;66.35
19576;BME280;41589;51.196;7.074;2023-03-04T10:54:24;99700.16;;;8.18;66.63
19576;BME280;41589;51.196;7.074;2023-03-04T10:59:43;99704.25;;;8.53;66.63
19576;BME280;41589;51.196;7.074;2023-03-04T11:10:13;99695.66;;;8.24;65.02
19576;BME280;41589;51.196;7.074;2023-03-04T11:15:21;99702.53;;;7.99;65.62
19576;BME280;41589;51.196;7.074;2023-03-04T11:20:30;99703.41;;;7.96;66.09
19576;BME280;41589;51.196;7.074;2023-03-04T11:25:34;99697.66;;;8.03;65.75
19576;BME280;41589;51.196;7.074;2023-03-04T11:30:38;99686.38;;;8.07;65.80
19576;BME280;41589;51.196;7.074;2023-03-04T11:35:54;99691.31;;;7.99;65.50
19576;BME280;41589;51.196;7.074;2023-03-04T11:40:59;99687.59;;;8.06;65.49
19576;BME280;41589;51.196;7.074;2023-03-04T11:51:31;99676.94;;;7.97;65.04
19576;BME280;41589;51.196;7.074;2023-03-04T11:56:42;99658.75;;;8.05;66.35
19576;BME280;41589;51.196;7.074;2023-03-04T12:01:53;99661.66;;;8.22;64.93
19576;BME280;41589;51.196;7.074;2023-03-04T12:07:10;99651.09;;;8.46;65.82
19576;BME280;41589;51.196;7.074;2023-03-04T12:28:50;99618.59;;;8.64;62.65
19576;BME280;41589;51.196;7.074;2023-03-04T12:34:03;99598.94;;;8.48;62.72
19576;BME280;41589;51.196;7.074;2023-03-04T12:44:23;99612.50;;;8.33;63.38
19576;BME280;41589;51.196;7.074;2023-03-04T12:54:30;99604.34;;;8.23;63.77
19576;BME280;41589;51.196;7.074;2023-03-04T12:59:38;99598.50;;;8.33;63.72
19576;BME280;41589;51.196;7.074;2023-03-04T13:05:38;99579.09;;;8.72;63.31
19576;BME280;41589;51.196;7.074;2023-03-04T13:10:13;99575.06;;;8.89;63.18
19576;BME280;41589;51.196;7.074;2023-03-04T13:20:22;99569.34;;;8.92;62.21
19576;BME280;41589;51.196;7.074;2023-03-04T13:25:42;99573.75;;;8.61;62.66
19576;BME280;41589;51.196;7.074;2023-03-04T13:31:06;99558.50;;;8.29;64.04
19576;BME280;41589;51.196;7.074;2023-03-04T13:36:27;99564.53;;;8.28;64.03
19576;BME280;41589;51.196;7.074;2023-03-04T13:41:30;99565.53;;;8.01;64.99
19576;BME280;41589;51.196;7.074;2023-03-04T13:46:40;99564.66;;;8.04;65.75
19576;BME280;41589;51.196;7.074;2023-03-04T13:51:42;99573.66;;;7.96;66.67
19576;BME280;41589;51.196;7.074;2023-03-04T13:56:45;99563.78;;;8.07;67.17
19576;BME280;41589;51.196;7.074;2023-03-04T14:01:50;99551.84;;;8.23;67.51
19576;BME280;41589;51.196;7.074;2023-03-04T14:06:54;99542.84;;;8.32;67.31
19576;BME280;41589;51.196;7.074;2023-03-04T14:11:57;99534.41;;;8.48;68.19
19576;BME280;41589;51.196;7.074;2023-03-04T14:17:00;99522.41;;;8.48;67.67
19576;BME280;41589;51.196;7.074;2023-03-04T14:22:02;99530.13;;;8.44;67.88
19576;BME280;41589;51.196;7.074;2023-03-04T14:27:10;99525.56;;;8.33;68.00
19576;BME280;41589;51.196;7.074;2023-03-04T14:32:11;99519.84;;;8.37;67.91
19576;BME280;41589;51.196;7.074;2023-03-04T14:37:20;99522.47;;;8.28;68.04
19576;BME280;41589;51.196;7.074;2023-03-04T14:42:24;99510.81;;;8.29;68.26
19576;BME280;41589;51.196;7.074;2023-03-04T14:47:36;99497.56;;;8.30;68.67
19576;BME280;41589;51.196;7.074;2023-03-04T14:52:41;99487.69;;;8.25;68.14
19576;BME280;41589;51.196;7.074;2023-03-04T14:57:44;99492.06;;;8.43;68.10
19576;BME280;41589;51.196;7.074;2023-03-04T15:02:49;99488.38;;;8.13;67.88
19576;BME280;41589;51.196;7.074;2023-03-04T15:07:57;99477.75;;;8.21;68.32
19576;BME280;41589;51.196;7.074;2023-03-04T15:13:00;99474.00;;;8.27;68.29
19576;BME280;41589;51.196;7.074;2023-03-04T15:18:25;99474.56;;;8.22;68.32
19576;BME280;41589;51.196;7.074;2023-03-04T15:23:28;99468.13;;;8.05;68.89
19576;BME280;41589;51.196;7.074;2023-03-04T15:28:36;99470.97;;;8.22;69.18
19576;BME280;41589;51.196;7.074;2023-03-04T15:33:36;99471.44;;;8.17;68.94
19576;BME280;41589;51.196;7.074;2023-03-04T15:38:40;99468.72;;;8.13;69.00
19576;BME280;41589;51.196;7.074;2023-03-04T15:43:40;99460.13;;;8.20;69.27
19576;BME280;41589;51.196;7.074;2023-03-04T15:48:40;99459.03;;;8.34;68.65
19576;BME280;41589;51.196;7.074;2023-03-04T15:53:50;99449.78;;;8.17;68.81
19576;BME280;41589;51.196;7.074;2023-03-04T15:58:53;99456.22;;;8.01;68.75
19576;BME280;41589;51.196;7.074;2023-03-04T16:03:54;99455.94;;;7.96;69.46
19576;BME280;41589;51.196;7.074;2023-03-04T16:08:55;99459.00;;;8.18;69.50
19576;BME280;41589;51.196;7.074;2023-03-04T16:13:56;99464.59;;;8.18;69.22
19576;BME280;41589;51.196;7.074;2023-03-04T16:18:57;99472.22;;;8.17;68.88
19576;BME280;41589;51.196;7.074;2023-03-04T16:23:57;99463.81;;;7.84;69.19
19576;BME280;41589;51.196;7.074;2023-03-04T16:28:58;99459.38;;;7.67;69.75
19576;BME280;41589;51.196;7.074;2023-03-04T16:33:59;99472.78;;;7.60;69.75
19576;BME280;41589;51.196;7.074;2023-03-04T16:39:02;99468.81;;;7.57;70.48
19576;BME280;41589;51.196;7.074;2023-03-04T16:44:03;99474.06;;;7.55;70.26
19576;BME280;41589;51.196;7.074;2023-03-04T16:49:05;99468.81;;;7.57;70.46
19576;BME280;41589;51.196;7.074;2023-03-04T16:54:06;99466.63;;;7.48;69.89
19576;BME280;41589;51.196;7.074;2023-03-04T16:59:16;99466.78;;;7.41;70.24
19576;BME280;41589;51.196;7.074;2023-03-04T17:04:16;99468.28;;;7.46;69.86
19576;BME280;41589;51.196;7.074;2023-03-04T17:09:17;99464.25;;;7.47;69.60
19576;BME280;41589;51.196;7.074;2023-03-04T17:14:17;99468.13;;;7.53;69.24
19576;BME280;41589;51.196;7.074;2023-03-04T17:19:17;99471.34;;;7.51;69.21
19576;BME280;41589;51.196;7.074;2023-03-04T17:24:17;99459.81;;;7.49;69.05
19576;BME280;41589;51.196;7.074;2023-03-04T17:29:18;99468.13;;;7.53;68.76
19576;BME280;41589;51.196;7.074;2023-03-04T17:34:19;99464.25;;;7.47;68.74
19576;BME280;41589;51.196;7.074;2023-03-04T17:39:19;99473.16;;;7.42;68.46
19576;BME280;41589;51.196;7.074;2023-03-04T17:44:20;99471.72;;;7.34;68.09
19576;BME280;41589;51.196;7.074;2023-03-04T17:49:20;99485.88;;;7.26;67.55
19576;BME280;41589;51.196;7.074;2023-03-04T17:54:20;99488.06;;;7.19;67.43
19576;BME280;41589;51.196;7.074;2023-03-04T17:59:21;99487.41;;;7.31;67.12
19576;BME280;41589;51.196;7.074;2023-03-04T18:04:22;99489.84;;;7.29;66.77
19576;BME280;41589;51.196;7.074;2023-03-04T18:09:22;99490.56;;;7.33;66.02
19576;BME280;41589;51.196;7.074;2023-03-04T18:14:22;99489.41;;;7.31;66.15
19576;BME280;41589;51.196;7.074;2023-03-04T18:19:23;99483.84;;;7.47;65.37
19576;BME280;41589;51.196;7.074;2023-03-04T18:24:23;99478.03;;;7.38;63.84
19576;BME280;41589;51.196;7.074;2023-03-04T18:29:23;99482.22;;;7.49;63.53
19576;BME280;41589;51.196;7.074;2023-03-04T18:34:24;99470.50;;;7.35;63.06
19576;BME280;41589;51.196;7.074;2023-03-04T18:39:24;99458.41;;;7.21;62.72
19576;BME280;41589;51.196;7.074;2023-03-04T18:44:25;99460.41;;;7.21;62.29
19576;BME280;41589;51.196;7.074;2023-03-04T18:49:25;99457.59;;;7.21;62.50
19576;BME280;41589;51.196;7.074;2023-03-04T18:54:26;99459.66;;;7.37;62.36
19576;BME280;41589;51.196;7.074;2023-03-04T18:59:30;99462.34;;;7.24;62.05
19576;BME280;41589;51.196;7.074;2023-03-04T19:04:33;99460.19;;;7.32;61.86
19576;BME280;41589;51.196;7.074;2023-03-04T19:09:33;99469.59;;;7.21;61.63
19576;BME280;41589;51.196;7.074;2023-03-04T19:14:33;99470.59;;;7.11;61.45
19576;BME280;41589;51.196;7.074;2023-03-04T19:19:34;99466.88;;;7.18;61.05
19576;BME280;41589;51.196;7.074;2023-03-04T19:24:35;99476.63;;;7.10;60.86
19576;BME280;41589;51.196;7.074;2023-03-04T19:29:35;99477.22;;;7.21;60.91
19576;BME280;41589;51.196;7.074;2023-03-04T19:34:36;99481.88;;;7.08;60.40
19576;BME280;41589;51.196;7.074;2023-03-04T19:39:38;99487.09;;;7.25;60.62
19576;BME280;41589;51.196;7.074;2023-03-04T19:44:38;99494.84;;;7.38;60.28
19576;BME280;41589;51.196;7.074;2023-03-04T19:49:39;99490.63;;;7.30;59.76
19576;BME280;41589;51.196;7.074;2023-03-04T19:54:40;99498.38;;;7.02;59.18
19576;BME280;41589;51.196;7.074;2023-03-04T19:59:40;99491.06;;;7.08;59.08
19576;BME280;41589;51.196;7.074;2023-03-04T20:04:41;99495.56;;;7.02;57.86
19576;BME280;41589;51.196;7.074;2023-03-04T20:09:42;99488.53;;;6.94;57.39
19576;BME280;41589;51.196;7.074;2023-03-04T20:14:42;99495.56;;;7.02;56.22
19576;BME280;41589;51.196;7.074;2023-03-04T20:19:43;99505.75;;;6.92;55.81
19576;BME280;41589;51.196;7.074;2023-03-04T20:24:43;99492.00;;;7.02;55.66
19576;BME280;41589;51.196;7.074;2023-03-04T20:29:43;99476.50;;;6.97;54.97
19576;BME280;41589;51.196;7.074;2023-03-04T20:34:45;99487.31;;;6.95;54.80
19576;BME280;41589;51.196;7.074;2023-03-04T20:39:46;99495.00;;;6.91;55.03
19576;BME280;41589;51.196;7.074;2023-03-04T20:44:49;99487.31;;;6.95;54.90
19576;BME280;41589;51.196;7.074;2023-03-04T20:49:50;99494.72;;;7.05;54.96
19576;BME280;41589;51.196;7.074;2023-03-04T20:54:50;99487.03;;;7.09;54.02
19576;BME280;41589;51.196;7.074;2023-03-04T20:59:51;99476.13;;;6.95;53.84
19576;BME280;41589;51.196;7.074;2023-03-04T21:04:51;99479.34;;;7.13;53.77
19576;BME280;41589;51.196;7.074;2023-03-04T21:09:53;99467.16;;;7.23;53.67
19576;BME280;41589;51.196;7.074;2023-03-04T21:14:53;99471.91;;;7.07;53.50
19576;BME280;41589;51.196;7.074;2023-03-04T21:19:53;99468.94;;;7.14;53.67
19576;BME280;41589;51.196;7.074;2023-03-04T21:24:54;99461.06;;;7.09;53.28
19576;BME280;41589;51.196;7.074;2023-03-04T21:29:54;99452.66;;;7.09;53.32
19576;BME280;41589;51.196;7.074;2023-03-04T21:34:54;99458.97;;;7.13;54.00
19576;BME280;41589;51.196;7.074;2023-03-04T21:39:55;99451.66;;;6.99;53.78
19576;BME280;41589;51.196;7.074;2023-03-04T21:44:57;99457.53;;;6.85;53.59
19576;BME280;41589;51.196;7.074;2023-03-04T21:49:57;99450.78;;;6.82;54.25
19576;BME280;41589;51.196;7.074;2023-03-04T21:54:57;99446.84;;;6.80;54.81
19576;BME280;41589;51.196;7.074;2023-03-04T21:59:59;99458.50;;;6.55;55.14
19576;BME280;41589;51.196;7.074;2023-03-04T22:04:59;99439.72;;;6.75;55.27
19576;BME280;41589;51.196;7.074;2023-03-04T22:10:00;99451.69;;;6.56;55.92
19576;BME280;41589;51.196;7.074;2023-03-04T22:15:05;99451.13;;;6.64;55.57
19576;BME280;41589;51.196;7.074;2023-03-04T22:20:06;99442.41;;;6.39;56.74
19576;BME280;41589;51.196;7.074;2023-03-04T22:25:07;99434.00;;;6.39;57.17
19576;BME280;41589;51.196;7.074;2023-03-04T22:30:08;99432.25;;;6.49;56.79
19576;BME280;41589;51.196;7.074;2023-03-04T22:35:09;99444.66;;;6.48;56.76
19576;BME280;41589;51.196;7.074;2023-03-04T22:40:10;99443.66;;;6.58;57.06
19576;BME280;41589;51.196;7.074;2023-03-04T22:45:15;99425.34;;;6.53;57.50
19576;BME280;41589;51.196;7.074;2023-03-04T22:50:20;99432.53;;;6.54;57.23
19576;BME280;41589;51.196;7.074;2023-03-04T22:55:21;99437.97;;;6.42;57.77
19576;BME280;41589;51.196;7.074;2023-03-04T23:00:25;99426.09;;;6.57;57.62
19576;BME280;41589;51.196;7.074;2023-03-04T23:05:25;99428.38;;;6.62;57.44
19576;BME280;41589;51.196;7.074;2023-03-04T23:10:26;99425.78;;;6.52;57.85
19576;BME280;41589;51.196;7.074;2023-03-04T23:15:28;99432.41;;;6.61;57.85
19576;BME280;41589;51.196;7.074;2023-03-04T23:20:28;99426.72;;;6.45;57.94
19576;BME280;41589;51.196;7.074;2023-03-04T23:25:29;99432.66;;;6.24;58.52
19576;BME280;41589;51.196;7.074;2023-03-04T23:30:29;99432.00;;;6.39;58.59
19576;BME280;41589;51.196;7.074;2023-03-04T23:35:30;99428.50;;;6.35;58.69
19576;BME280;41589;51.196;7.074;2023-03-04T23:40:30;99435.94;;;6.19;58.22
19576;BME280;41589;51.196;7.074;2023-03-04T23:45:30;99432.53;;;6.31;59.00
19576;BME280;41589;51.196;7.074;2023-03-04T23:50:32;99420.47;;;6.37;58.28
19576;BME280;41589;51.196;7.074;2023-03-04T23:55:34;99418.03;;;6.39;58.41
